createdAt,value
2022-10-22T00:01:10.826Z,4.77
2022-10-22T00:03:38.315Z,4.75
2022-10-22T00:06:07.048Z,4.78
2022-10-22T00:08:34.745Z,4.77
2022-10-22T00:11:14.858Z,4.78
2022-10-22T00:13:43.316Z,4.76
2022-10-22T00:16:11.569Z,4.83
2022-10-22T00:18:42.279Z,4.87
2022-10-22T00:21:13.352Z,4.91
2022-10-22T00:23:42.968Z,5.00
2022-10-22T00:26:11.242Z,4.95
2022-10-22T00:28:39.392Z,4.97
2022-10-22T00:31:07.105Z,4.92
2022-10-22T00:33:35.192Z,4.91
2022-10-22T00:36:07.479Z,4.91
2022-10-22T00:38:35.142Z,4.94
2022-10-22T00:41:02.780Z,4.88
2022-10-22T00:43:30.548Z,4.85
2022-10-22T00:45:58.064Z,4.98
2022-10-22T00:48:30.078Z,4.87
2022-10-22T00:51:04.784Z,4.90
2022-10-22T00:53:51.826Z,4.88
2022-10-22T00:56:20.857Z,4.80
2022-10-22T00:58:55.989Z,4.81
2022-10-22T01:01:26.671Z,4.79
2022-10-22T01:03:55.485Z,4.77
2022-10-22T01:06:34.386Z,4.74
2022-10-22T01:09:23.823Z,4.72
2022-10-22T01:12:04.053Z,4.65
2022-10-22T01:15:02.752Z,4.66
2022-10-22T01:17:36.427Z,4.60
2022-10-22T01:20:31.781Z,4.74
2022-10-22T01:23:27.355Z,4.66
2022-10-22T01:26:06.430Z,4.66
2022-10-22T01:28:59.073Z,4.55
2022-10-22T01:31:32.798Z,4.58
2022-10-22T01:34:03.793Z,4.57
2022-10-22T01:36:34.179Z,4.56
2022-10-22T01:39:03.255Z,4.58
2022-10-22T01:41:32.500Z,4.59
2022-10-22T01:44:00.028Z,4.54
2022-10-22T01:46:29.393Z,4.65
2022-10-22T01:49:33.689Z,4.61
2022-10-22T01:52:21.364Z,4.62
2022-10-22T01:55:30.465Z,4.65
2022-10-22T01:58:16.601Z,4.61
2022-10-22T02:00:58.583Z,4.62
2022-10-22T02:03:33.040Z,4.70
2022-10-22T02:06:08.974Z,4.68
2022-10-22T02:08:37.523Z,4.58
2022-10-22T02:11:06.445Z,4.55
2022-10-22T02:13:41.028Z,4.66
2022-10-22T02:16:13.600Z,4.70
2022-10-22T02:18:44.763Z,4.82
2022-10-22T02:21:12.944Z,4.75
2022-10-22T02:23:40.818Z,4.83
2022-10-22T02:26:25.553Z,4.71
2022-10-22T02:29:02.866Z,4.75
2022-10-22T02:31:34.628Z,4.88
2022-10-22T02:34:10.326Z,4.85
2022-10-22T02:36:46.731Z,4.81
2022-10-22T02:39:19.468Z,4.84
2022-10-22T02:41:47.489Z,4.82
2022-10-22T02:44:15.302Z,4.87
2022-10-22T02:46:43.943Z,4.89
2022-10-22T02:49:11.701Z,4.80
2022-10-22T02:51:39.662Z,4.81
2022-10-22T02:54:07.394Z,4.94
2022-10-22T02:56:35.656Z,4.90
2022-10-22T02:59:03.583Z,4.99
2022-10-22T03:01:31.440Z,4.99
2022-10-22T03:03:58.967Z,4.87
2022-10-22T03:06:26.691Z,4.90
2022-10-22T03:08:55.993Z,4.94
2022-10-22T03:11:23.671Z,5.04
2022-10-22T03:13:52.112Z,5.00
2022-10-22T03:16:19.875Z,5.08
2022-10-22T03:18:48.771Z,5.09
2022-10-22T03:21:54.920Z,5.09
2022-10-22T03:24:37.140Z,5.09
2022-10-22T03:27:07.341Z,5.08
2022-10-22T03:29:38.723Z,5.03
2022-10-22T03:32:07.732Z,5.13
2022-10-22T03:34:35.768Z,5.09
2022-10-22T03:37:04.188Z,5.05
2022-10-22T03:39:34.694Z,5.02
2022-10-22T03:42:03.526Z,5.04
2022-10-22T03:44:32.119Z,5.06
2022-10-22T03:47:02.451Z,5.18
2022-10-22T03:49:30.762Z,5.17
2022-10-22T03:51:58.921Z,5.17
2022-10-22T03:54:26.745Z,5.20
2022-10-22T03:56:56.143Z,5.17
2022-10-22T03:59:23.922Z,5.12
2022-10-22T04:01:51.774Z,5.08
2022-10-22T04:04:19.561Z,5.21
2022-10-22T04:06:47.793Z,5.22
2022-10-22T04:09:16.107Z,5.26
2022-10-22T04:11:43.790Z,5.23
2022-10-22T04:14:14.372Z,5.22
2022-10-22T04:16:44.108Z,5.21
2022-10-22T04:19:13.485Z,5.17
2022-10-22T04:21:41.071Z,5.15
2022-10-22T04:24:09.396Z,5.17
2022-10-22T04:26:37.491Z,5.19
2022-10-22T04:29:10.627Z,5.23
2022-10-22T04:31:43.396Z,5.21
2022-10-22T04:34:11.240Z,5.19
2022-10-22T04:36:38.843Z,5.17
2022-10-22T04:39:06.987Z,5.23
2022-10-22T04:41:38.793Z,5.28
2022-10-22T04:44:11.054Z,5.21
2022-10-22T04:46:44.138Z,5.22
2022-10-22T04:49:13.246Z,5.27
2022-10-22T04:51:41.305Z,5.36
2022-10-22T04:54:08.921Z,5.36
2022-10-22T04:56:36.624Z,5.47
2022-10-22T04:59:07.223Z,5.53
2022-10-22T05:01:42.917Z,5.64
2022-10-22T05:04:16.260Z,5.68
2022-10-22T05:06:44.050Z,5.74
2022-10-22T05:09:18.905Z,5.85
2022-10-22T05:11:49.376Z,5.87
2022-10-22T05:14:22.155Z,5.92
2022-10-22T05:16:52.874Z,5.92
2022-10-22T05:19:27.808Z,5.94
2022-10-22T05:24:44.184Z,5.93
2022-10-22T05:27:13.857Z,5.92
2022-10-22T05:29:42.466Z,5.89
2022-10-22T05:32:11.955Z,5.90
2022-10-22T05:34:41.024Z,5.87
2022-10-22T05:37:09.712Z,6.09
2022-10-22T05:39:40.453Z,6.18
2022-10-22T05:42:08.262Z,6.20
2022-10-22T05:44:36.032Z,6.26
2022-10-22T05:47:04.259Z,6.29
2022-10-22T05:49:34.170Z,6.42
2022-10-22T05:52:03.324Z,6.45
2022-10-22T05:54:31.242Z,6.52
2022-10-22T05:56:59.663Z,6.57
2022-10-22T05:59:27.284Z,6.54
2022-10-22T06:01:54.905Z,6.64
2022-10-22T06:04:23.310Z,6.67
2022-10-22T06:06:54.075Z,6.78
2022-10-22T06:12:09.610Z,6.84
2022-10-22T06:14:40.417Z,6.99
2022-10-22T06:17:12.486Z,7.14
2022-10-22T06:19:42.928Z,7.25
2022-10-22T06:22:10.766Z,7.41
2022-10-22T06:24:41.596Z,7.55
2022-10-22T06:27:12.106Z,7.68
2022-10-22T06:29:40.546Z,7.92
2022-10-22T06:32:08.157Z,8.03
2022-10-22T06:34:36.093Z,8.25
2022-10-22T06:37:03.776Z,8.43
2022-10-22T06:39:31.838Z,8.61
2022-10-22T06:42:00.468Z,8.75
2022-10-22T06:44:28.868Z,9.07
2022-10-22T06:46:57.497Z,9.11
2022-10-22T06:49:25.416Z,9.20
2022-10-22T06:51:54.775Z,9.14
2022-10-22T06:54:23.284Z,9.11
2022-10-22T06:56:52.265Z,9.10
2022-10-22T06:59:20.149Z,9.11
2022-10-22T07:01:48.506Z,9.17
2022-10-22T07:04:17.261Z,9.15
2022-10-22T07:06:46.787Z,9.25
2022-10-22T07:09:16.170Z,9.31
2022-10-22T07:11:46.299Z,9.42
2022-10-22T07:14:15.212Z,9.45
2022-10-22T07:16:45.797Z,9.55
2022-10-22T07:19:14.327Z,9.64
2022-10-22T07:21:43.017Z,9.87
2022-10-22T07:24:12.300Z,10.06
2022-10-22T07:26:42.509Z,10.42
2022-10-22T07:29:10.768Z,10.51
2022-10-22T07:31:39.583Z,10.49
2022-10-22T07:34:08.035Z,10.56
2022-10-22T07:36:35.767Z,10.47
2022-10-22T07:39:04.405Z,10.44
2022-10-22T07:41:34.007Z,10.50
2022-10-22T07:44:03.522Z,10.61
2022-10-22T07:46:40.267Z,10.62
2022-10-22T07:49:08.866Z,10.67
2022-10-22T07:51:36.992Z,10.67
2022-10-22T07:54:05.904Z,10.73
2022-10-22T07:56:36.208Z,10.66
2022-10-22T07:59:03.804Z,10.73
2022-10-22T08:01:31.920Z,10.78
2022-10-22T08:04:00.088Z,10.84
2022-10-22T08:06:28.029Z,10.78
2022-10-22T08:08:56.546Z,10.79
2022-10-22T08:11:24.635Z,10.79
2022-10-22T08:13:52.675Z,10.83
2022-10-22T08:16:20.833Z,10.85
2022-10-22T08:18:48.735Z,10.91
2022-10-22T08:21:18.108Z,10.94
2022-10-22T08:23:46.403Z,10.96
2022-10-22T08:26:14.661Z,10.97
2022-10-22T08:28:47.112Z,11.12
2022-10-22T08:31:15.422Z,11.28
2022-10-22T08:33:44.016Z,11.48
2022-10-22T08:36:11.875Z,11.63
2022-10-22T08:38:41.318Z,11.61
2022-10-22T08:41:17.123Z,11.72
2022-10-22T08:44:22.231Z,11.90
2022-10-22T08:47:21.491Z,11.96
2022-10-22T08:49:53.207Z,12.03
2022-10-22T08:52:22.806Z,12.08
2022-10-22T08:54:58.402Z,12.19
2022-10-22T08:58:02.194Z,12.37
2022-10-22T09:00:42.582Z,12.56
2022-10-22T09:03:10.246Z,12.53
2022-10-22T09:06:15.293Z,12.87
2022-10-22T09:08:47.189Z,12.93
2022-10-22T09:11:38.785Z,12.91
2022-10-22T09:17:21.474Z,12.85
2022-10-22T09:19:52.539Z,12.76
2022-10-22T09:22:40.238Z,12.74
2022-10-22T09:25:28.566Z,12.98
2022-10-22T09:27:59.428Z,13.11
2022-10-22T09:30:30.892Z,13.38
2022-10-22T09:33:14.999Z,13.65
2022-10-22T09:35:48.657Z,14.01
2022-10-22T09:38:19.726Z,14.02
2022-10-22T09:40:55.072Z,14.43
2022-10-22T09:43:23.335Z,14.59
2022-10-22T09:46:04.589Z,14.68
2022-10-22T09:48:43.180Z,14.76
2022-10-22T09:51:25.950Z,14.58
2022-10-22T09:54:03.296Z,14.39
2022-10-22T09:56:39.488Z,14.39
2022-10-22T09:59:07.149Z,13.91
2022-10-22T10:01:41.097Z,13.77
2022-10-22T10:04:12.599Z,13.87
2022-10-22T10:06:42.794Z,13.60
2022-10-22T10:09:17.877Z,13.52
2022-10-22T10:12:20.504Z,13.46
2022-10-22T10:15:07.098Z,13.45
2022-10-22T10:17:59.358Z,13.54
2022-10-22T10:20:35.994Z,13.43
2022-10-22T10:23:32.311Z,13.59
2022-10-22T10:26:24.738Z,13.35
2022-10-22T10:29:14.459Z,13.34
2022-10-22T10:32:13.029Z,13.44
2022-10-22T10:35:03.651Z,13.45
2022-10-22T10:37:44.105Z,13.42
2022-10-22T10:40:23.851Z,13.65
2022-10-22T10:42:59.350Z,13.79
2022-10-22T10:45:29.987Z,14.00
2022-10-22T10:48:09.669Z,14.32
2022-10-22T10:50:43.998Z,14.39
2022-10-22T10:53:41.062Z,14.17
2022-10-22T10:56:39.215Z,14.29
2022-10-22T10:59:19.700Z,14.21
2022-10-22T11:02:08.456Z,14.25
2022-10-22T11:05:03.401Z,13.97
2022-10-22T11:07:39.157Z,13.89
2022-10-22T11:10:14.598Z,13.80
2022-10-22T11:12:51.661Z,13.85
2022-10-22T11:15:33.766Z,13.82
2022-10-22T11:18:16.093Z,13.70
2022-10-22T11:20:55.841Z,13.73
2022-10-22T11:23:51.292Z,13.61
2022-10-22T11:26:54.829Z,13.75
2022-10-22T11:29:28.236Z,13.77
2022-10-22T11:32:00.804Z,13.89
2022-10-22T11:34:35.093Z,13.91
2022-10-22T11:37:05.203Z,13.79
2022-10-22T11:39:39.763Z,13.80
2022-10-22T11:42:12.570Z,13.76
2022-10-22T11:45:05.341Z,13.90
2022-10-22T11:47:53.547Z,14.04
2022-10-22T11:50:25.195Z,13.92
2022-10-22T11:53:03.512Z,13.92
2022-10-22T11:55:55.615Z,13.98
2022-10-22T11:58:30.901Z,13.96
2022-10-22T12:01:03.690Z,13.99
2022-10-22T12:03:31.487Z,13.90
2022-10-22T12:06:19.949Z,13.95
2022-10-22T12:08:51.036Z,13.86
2022-10-22T12:11:37.348Z,13.90
2022-10-22T12:14:26.844Z,13.92
2022-10-22T12:17:12.856Z,13.94
2022-10-22T12:19:44.338Z,13.95
2022-10-22T12:22:21.412Z,14.02
2022-10-22T12:24:52.222Z,14.08
2022-10-22T12:27:26.442Z,14.04
2022-10-22T12:29:58.868Z,13.86
2022-10-22T12:32:38.435Z,13.95
2022-10-22T12:35:17.203Z,14.06
2022-10-22T12:37:45.352Z,14.07
2022-10-22T12:40:23.366Z,14.08
2022-10-22T12:42:52.452Z,13.83
2022-10-22T12:45:21.565Z,13.93
2022-10-22T12:48:03.402Z,13.89
2022-10-22T12:50:40.664Z,14.00
2022-10-22T12:53:23.367Z,13.71
2022-10-22T12:55:53.278Z,13.86
2022-10-22T12:58:28.182Z,14.05
2022-10-22T13:00:59.589Z,14.00
2022-10-22T13:03:38.763Z,14.27
2022-10-22T13:06:18.611Z,14.49
2022-10-22T13:09:00.817Z,14.78
2022-10-22T13:11:45.169Z,14.71
2022-10-22T13:14:31.943Z,14.56
2022-10-22T13:17:21.457Z,14.45
2022-10-22T13:20:06.183Z,14.19
2022-10-22T13:22:37.052Z,14.14
2022-10-22T13:25:21.121Z,14.15
2022-10-22T13:28:00.589Z,14.27
2022-10-22T13:30:36.918Z,14.05
2022-10-22T13:33:20.715Z,14.03
2022-10-22T13:35:49.791Z,13.86
2022-10-22T13:38:21.178Z,13.78
2022-10-22T13:40:51.472Z,13.75
2022-10-22T13:43:20.890Z,13.96
2022-10-22T13:46:00.682Z,13.77
2022-10-22T13:48:31.315Z,13.76
2022-10-22T13:50:59.650Z,13.63
2022-10-22T13:53:29.182Z,13.49
2022-10-22T13:55:57.385Z,13.46
2022-10-22T13:58:25.383Z,13.33
2022-10-22T14:00:59.425Z,13.17
2022-10-22T14:03:32.233Z,13.23
2022-10-22T14:06:02.174Z,13.27
2022-10-22T14:08:30.534Z,13.14
2022-10-22T14:10:58.779Z,13.07
2022-10-22T14:13:28.055Z,12.95
2022-10-22T14:15:56.228Z,12.92
2022-10-22T14:18:29.396Z,12.79
2022-10-22T14:21:14.954Z,12.84
2022-10-22T14:23:46.676Z,12.79
2022-10-22T14:26:24.102Z,12.67
2022-10-22T14:31:41.772Z,12.51
2022-10-22T14:34:15.217Z,12.43
2022-10-22T14:36:44.141Z,12.31
2022-10-22T14:39:14.373Z,12.23
2022-10-22T14:41:42.790Z,12.18
2022-10-22T14:44:14.861Z,12.21
2022-10-22T14:46:44.554Z,12.14
2022-10-22T14:49:12.614Z,12.15
2022-10-22T14:51:40.470Z,12.21
2022-10-22T14:54:08.793Z,12.13
2022-10-22T14:56:38.509Z,11.98
2022-10-22T14:59:06.817Z,11.89
2022-10-22T15:01:34.984Z,11.95
2022-10-22T15:04:06.577Z,11.73
2022-10-22T15:06:35.005Z,11.68
2022-10-22T15:09:03.801Z,11.56
2022-10-22T15:11:32.715Z,11.58
2022-10-22T15:14:13.165Z,11.49
2022-10-22T15:16:46.140Z,11.37
2022-10-22T15:19:16.019Z,11.26
2022-10-22T15:21:44.249Z,11.27
2022-10-22T15:24:12.326Z,11.26
2022-10-22T15:26:40.625Z,11.17
2022-10-22T15:29:08.467Z,11.14
2022-10-22T15:31:59.090Z,11.09
2022-10-22T15:34:34.690Z,11.12
2022-10-22T15:37:05.146Z,11.16
2022-10-22T15:39:32.864Z,11.13
2022-10-22T15:42:01.533Z,11.06
2022-10-22T15:44:32.617Z,11.15
2022-10-22T15:47:03.483Z,11.18
2022-10-22T15:49:31.587Z,11.14
2022-10-22T15:54:57.932Z,11.16
2022-10-22T15:57:32.478Z,11.22
2022-10-22T16:00:15.476Z,11.23
2022-10-22T16:02:44.702Z,11.16
2022-10-22T16:05:13.008Z,11.23
2022-10-22T16:07:47.474Z,11.19
2022-10-22T16:10:17.510Z,11.23
2022-10-22T16:12:47.050Z,11.24
2022-10-22T16:15:15.317Z,11.25
2022-10-22T16:17:46.935Z,11.35
2022-10-22T16:20:20.599Z,11.31
2022-10-22T16:22:53.508Z,11.28
2022-10-22T16:25:21.932Z,11.38
2022-10-22T16:27:53.593Z,11.34
2022-10-22T16:30:21.767Z,11.45
2022-10-22T16:32:49.478Z,11.41
2022-10-22T16:35:17.462Z,11.50
2022-10-22T16:37:47.428Z,11.40
2022-10-22T16:40:17.158Z,11.42
2022-10-22T16:42:45.745Z,11.39
2022-10-22T16:50:37.009Z,11.43
2022-10-22T16:53:04.566Z,11.42
2022-10-22T16:55:39.185Z,11.52
2022-10-22T16:58:07.802Z,11.50
2022-10-22T17:00:37.205Z,11.52
2022-10-22T17:03:12.376Z,11.55
2022-10-22T17:05:40.819Z,11.59
2022-10-22T17:08:08.395Z,11.50
2022-10-22T17:10:40.700Z,11.62
2022-10-22T17:13:09.096Z,11.53
2022-10-22T17:15:40.085Z,11.61
2022-10-22T17:18:08.684Z,11.57
2022-10-22T17:20:37.184Z,11.56
2022-10-22T17:23:06.475Z,11.59
2022-10-22T17:25:43.212Z,11.58
2022-10-22T17:28:13.118Z,11.55
2022-10-22T17:30:51.191Z,11.48
2022-10-22T17:33:20.180Z,11.51
2022-10-22T17:35:52.768Z,11.56
2022-10-22T17:38:22.895Z,11.57
2022-10-22T17:40:51.463Z,11.62
2022-10-22T17:43:20.874Z,11.51
2022-10-22T17:45:49.756Z,11.45
2022-10-22T17:48:19.197Z,11.47
2022-10-22T17:50:53.634Z,11.45
2022-10-22T17:53:26.921Z,11.56
2022-10-22T17:56:04.360Z,11.49
2022-10-22T17:58:33.941Z,11.42
2022-10-22T18:01:01.728Z,11.50
2022-10-22T18:03:30.160Z,11.54
2022-10-22T18:06:06.487Z,11.58
2022-10-22T18:08:35.548Z,11.53
2022-10-22T18:11:13.337Z,11.46
2022-10-22T18:13:49.696Z,11.42
2022-10-22T18:16:22.573Z,11.43
2022-10-22T18:18:55.711Z,11.42
2022-10-22T18:21:30.359Z,11.41
2022-10-22T18:23:59.980Z,11.38
2022-10-22T18:26:28.428Z,11.38
2022-10-22T18:28:57.883Z,11.34
2022-10-22T18:31:30.552Z,11.31
2022-10-22T18:34:03.756Z,11.35
2022-10-22T18:36:32.298Z,11.41
2022-10-22T18:39:05.698Z,11.39
2022-10-22T18:41:34.880Z,11.39
2022-10-22T18:44:05.152Z,11.32
2022-10-22T18:46:38.559Z,11.31
2022-10-22T18:49:07.663Z,11.42
2022-10-22T18:51:36.536Z,11.39
2022-10-22T18:54:21.785Z,11.48
2022-10-22T18:57:03.077Z,11.40
2022-10-22T18:59:32.097Z,11.40
2022-10-22T19:02:02.502Z,11.32
2022-10-22T19:04:37.417Z,11.30
2022-10-22T19:09:41.957Z,11.23
2022-10-22T19:12:14.894Z,11.29
2022-10-22T19:14:53.327Z,11.23
2022-10-22T19:17:26.757Z,11.30
2022-10-22T19:19:57.527Z,11.31
2022-10-22T19:22:39.687Z,11.23
2022-10-22T19:25:12.037Z,11.22
2022-10-22T19:27:52.992Z,11.15
2022-10-22T19:33:11.932Z,11.12
2022-10-22T19:35:39.828Z,11.08
2022-10-22T19:38:07.382Z,11.11
2022-10-22T19:40:35.837Z,11.01
2022-10-22T19:43:04.008Z,11.10
2022-10-22T19:45:32.963Z,11.04
2022-10-22T19:48:02.945Z,11.06
2022-10-22T19:50:32.708Z,10.98
2022-10-22T19:53:04.090Z,11.00
2022-10-22T19:55:33.877Z,10.92
2022-10-22T19:58:02.394Z,10.91
2022-10-22T20:00:34.855Z,10.87
2022-10-22T20:03:03.366Z,10.91
2022-10-22T20:05:31.421Z,10.87
2022-10-22T20:08:02.637Z,10.92
2022-10-22T20:10:51.382Z,10.93
2022-10-22T20:13:20.780Z,10.82
2022-10-22T20:15:53.364Z,10.89
2022-10-22T20:18:22.898Z,10.89
2022-10-22T20:20:51.040Z,10.84
2022-10-22T20:23:19.015Z,10.82
2022-10-22T20:25:48.197Z,10.82
2022-10-22T20:28:16.552Z,10.72
2022-10-22T20:30:46.155Z,10.85
2022-10-22T20:33:14.221Z,10.82
2022-10-22T20:35:42.937Z,10.85
2022-10-22T20:38:14.847Z,10.90
2022-10-22T20:40:42.397Z,10.83
2022-10-22T20:43:12.300Z,10.78
2022-10-22T20:45:40.640Z,10.72
2022-10-22T20:48:09.030Z,10.75
2022-10-22T20:50:37.696Z,10.70
2022-10-22T20:53:05.404Z,10.76
2022-10-22T20:55:32.931Z,10.72
2022-10-22T20:58:00.780Z,10.66
2022-10-22T21:00:36.125Z,10.75
2022-10-22T21:03:04.017Z,10.69
2022-10-22T21:05:31.813Z,10.68
2022-10-22T21:08:00.296Z,10.75
2022-10-22T21:10:32.433Z,10.78
2022-10-22T21:13:00.890Z,10.69
2022-10-22T21:15:29.161Z,10.75
2022-10-22T21:17:56.757Z,10.78
2022-10-22T21:20:25.368Z,10.76
2022-10-22T21:22:54.047Z,10.79
2022-10-22T21:25:21.927Z,10.81
2022-10-22T21:27:49.590Z,10.86
2022-10-22T21:30:17.198Z,10.81
2022-10-22T21:32:45.499Z,10.81
2022-10-22T21:35:15.842Z,10.82
2022-10-22T21:37:46.624Z,10.84
2022-10-22T21:40:16.642Z,10.90
2022-10-22T21:42:45.103Z,10.93
2022-10-22T21:45:14.246Z,10.91
2022-10-22T21:47:44.064Z,10.94
2022-10-22T21:50:14.745Z,10.96
2022-10-22T21:52:43.493Z,11.02
2022-10-22T21:55:11.159Z,11.01
2022-10-22T21:57:41.123Z,11.00
2022-10-22T22:00:11.771Z,10.97
2022-10-22T22:02:40.237Z,11.02
2022-10-22T22:05:09.548Z,11.07
2022-10-22T22:07:37.476Z,11.14
2022-10-22T22:10:06.672Z,11.16
2022-10-22T22:12:34.416Z,11.21
2022-10-22T22:15:02.098Z,11.25
2022-10-22T22:17:29.929Z,11.17
2022-10-22T22:20:03.424Z,11.21
2022-10-22T22:22:31.165Z,11.21
2022-10-22T22:24:58.751Z,11.21
2022-10-22T22:27:26.398Z,11.21
2022-10-22T22:29:54.380Z,11.24
2022-10-22T22:32:22.287Z,11.20
2022-10-22T22:34:50.035Z,11.28
2022-10-22T22:37:18.061Z,11.28
2022-10-22T22:39:45.601Z,11.31
2022-10-22T22:42:14.325Z,11.35
2022-10-22T22:44:42.830Z,11.35
2022-10-22T22:47:10.660Z,11.30
2022-10-22T22:49:38.165Z,11.23
2022-10-22T22:52:06.167Z,11.22
2022-10-22T22:54:34.413Z,11.26
2022-10-22T22:57:01.934Z,11.35
2022-10-22T22:59:29.718Z,11.39
2022-10-22T23:01:58.853Z,11.33
2022-10-22T23:04:26.802Z,11.39
2022-10-22T23:06:54.390Z,11.31
2022-10-22T23:09:25.986Z,11.27
2022-10-22T23:11:54.436Z,11.41
2022-10-22T23:14:21.961Z,11.33
2022-10-22T23:16:52.462Z,11.38
2022-10-22T23:19:22.563Z,11.35
2022-10-22T23:21:53.614Z,11.35
2022-10-22T23:24:25.307Z,11.35
2022-10-22T23:26:54.930Z,11.38
2022-10-22T23:29:26.416Z,11.31
2022-10-22T23:31:56.317Z,11.41
2022-10-22T23:34:25.530Z,11.35
2022-10-22T23:36:55.427Z,11.38
2022-10-22T23:39:27.913Z,11.31
2022-10-22T23:41:55.681Z,11.46
2022-10-22T23:44:24.418Z,11.45
2022-10-22T23:46:52.689Z,11.46
2022-10-22T23:49:20.429Z,11.40
2022-10-22T23:51:48.437Z,11.38
2022-10-22T23:54:18.544Z,11.38
2022-10-22T23:56:46.373Z,11.33
